Terminal Aerodrome Forecast
Issued by NWS

Home | Current Version | Previous Version | Text Only | Print | Product List | Glossary On
Versions: 1 2 3 4 5 6 7 8 9 10 11 12 13 14 15
383
FTPA31 PHFO 051924 AAA
TAFHTO
TAF AMD
PHTO 051924Z 0519/0618 24005KT P6SM VCSH SCT025 BKN045
      TEMPO 0519/0521 4SM -RA BR SCT015 BKN025
     FM052100 12009KT P6SM FEW025 SCT045
     FM060400 VRB04KT P6SM FEW025 SCT045
     FM060600 24005KT P6SM SCT025 BKN045=

USA.gov is the U.S. government's official web portal to all federal, state and local government web resources and services.